Time;durP1;ratioP1;P1;durP2;ratioP2;P2;SDS_P1;SDS_P2;PMS_P1;PMS_P2;Temp;Humidity;BMP_temperature;BMP_pressure;BME280_temperature;BME280_humidity;BME280_pressure;Samples;Min_cycle;Max_cycle;Signal;HPM_P1;HPM_P2
2022/12/20 00:00:51;;;;;;;48.03;24.27;;;;;;;1.23;87.97;101038.44;5073678;28;20215;-68
2022/12/20 00:03:19;;;;;;;47.17;24.40;;;;;;;1.19;88.39;101031.22;5067379;28;20202;-67
2022/12/20 00:05:46;;;;;;;47.73;23.70;;;;;;;1.14;88.64;101035.25;5068057;28;20658;-67
2022/12/20 00:08:13;;;;;;;44.17;23.97;;;;;;;1.11;88.69;101026.34;5059824;28;20203;-68
2022/12/20 00:10:42;;;;;;;43.83;22.67;;;;;;;1.14;89.04;101022.22;5060885;28;20240;-68
2022/12/20 00:13:10;;;;;;;47.37;24.63;;;;;;;1.22;88.24;101013.16;5065691;28;20198;-67
2022/12/20 00:15:37;;;;;;;45.73;23.47;;;;;;;1.30;87.56;101013.63;5066772;28;20628;-68
2022/12/20 00:18:03;;;;;;;46.60;23.07;;;;;;;1.22;87.29;101001.84;5066488;28;20239;-68
2022/12/20 00:20:30;;;;;;;45.70;23.33;;;;;;;1.22;87.57;101000.13;5058526;28;20289;-68
2022/12/20 00:22:56;;;;;;;43.27;22.60;;;;;;;1.14;87.76;101003.06;5061476;28;20665;-68
2022/12/20 00:25:23;;;;;;;42.50;22.70;;;;;;;1.09;87.91;101004.47;5058052;28;20246;-68
2022/12/20 00:27:50;;;;;;;45.77;23.23;;;;;;;1.06;88.34;100999.09;5064529;28;20234;-68
2022/12/20 00:30:16;;;;;;;46.13;23.33;;;;;;;1.07;88.34;101006.09;5069058;28;20252;-68
2022/12/20 00:32:43;;;;;;;44.03;23.33;;;;;;;0.98;88.63;100988.19;5065838;28;20251;-68
2022/12/20 00:35:10;;;;;;;43.10;22.57;;;;;;;1.06;88.88;100993.88;5059352;28;20187;-68
2022/12/20 00:37:37;;;;;;;43.13;21.37;;;;;;;1.04;89.04;100999.00;5068639;28;20677;-68
2022/12/20 00:40:05;;;;;;;46.13;22.97;;;;;;;1.03;89.42;100996.28;5068760;28;20659;-68
2022/12/20 00:42:32;;;;;;;42.03;22.10;;;;;;;0.99;89.32;100979.56;5062637;28;20213;-68
2022/12/20 00:44:58;;;;;;;41.57;22.47;;;;;;;1.15;89.12;100994.41;5062843;28;20221;-68
2022/12/20 00:47:25;;;;;;;45.73;23.40;;;;;;;1.14;88.89;100993.53;5066799;28;20214;-67
2022/12/20 00:49:51;;;;;;;43.67;22.97;;;;;;;1.12;89.00;100989.03;5053013;28;20546;-67
2022/12/20 00:52:17;;;;;;;45.77;22.93;;;;;;;1.15;88.83;100999.63;5066813;28;20191;-68
2022/12/20 00:54:43;;;;;;;43.57;21.97;;;;;;;1.15;89.14;100990.09;5067034;28;20255;-68
2022/12/20 00:57:10;;;;;;;45.37;23.57;;;;;;;1.13;89.17;100996.94;5062186;28;20230;-68
2022/12/20 00:59:36;;;;;;;41.93;21.03;;;;;;;1.15;89.38;101000.53;5067450;28;20662;-67
2022/12/20 01:02:02;;;;;;;42.10;22.20;;;;;;;1.18;89.13;101000.72;5068695;28;20207;-68
2022/12/20 01:04:29;;;;;;;44.27;23.03;;;;;;;1.17;89.39;100993.69;5067959;28;20230;-68
2022/12/20 01:06:56;;;;;;;43.53;22.87;;;;;;;1.14;89.22;100987.41;5062687;28;20227;-68
2022/12/20 01:09:22;;;;;;;41.73;22.07;;;;;;;1.19;89.53;100986.88;5067279;28;20205;-68
2022/12/20 01:11:48;;;;;;;42.63;21.73;;;;;;;1.15;89.28;100981.38;5064559;28;20192;-68
2022/12/20 01:14:15;;;;;;;40.40;21.87;;;;;;;1.29;89.12;101000.50;5067691;28;20202;-68
2022/12/20 01:16:46;;;;;;;40.83;22.63;;;;;;;1.27;88.95;100996.88;5059303;28;20696;-68
2022/12/20 01:19:15;;;;;;;44.50;22.53;;;;;;;1.39;88.69;100985.47;5060129;28;20212;-68
2022/12/20 01:21:45;;;;;;;46.87;23.27;;;;;;;1.50;88.00;100991.31;5061124;28;20611;-68
2022/12/20 01:24:15;;;;;;;44.57;23.43;;;;;;;1.53;87.50;100981.94;5063273;28;20424;-67
2022/12/20 01:26:42;;;;;;;43.37;22.50;;;;;;;1.59;87.37;100986.63;5067920;28;20245;-67
2022/12/20 01:29:09;;;;;;;47.07;22.80;;;;;;;1.55;87.63;100984.66;5068467;28;20191;-67
2022/12/20 01:31:36;;;;;;;44.90;22.33;;;;;;;1.62;87.73;100994.66;5063885;28;20195;-67
2022/12/20 01:34:02;;;;;;;44.70;22.30;;;;;;;1.63;87.16;100991.25;5057729;28;20945;-67
2022/12/20 01:36:31;;;;;;;46.77;22.80;;;;;;;1.50;87.22;101005.25;5060775;28;20700;-67
2022/12/20 01:39:02;;;;;;;41.17;21.87;;;;;;;1.49;87.78;100997.34;5063735;28;20671;-68
2022/12/20 01:41:30;;;;;;;47.30;22.77;;;;;;;1.44;88.20;100985.72;5059942;28;20197;-68
2022/12/20 01:44:00;;;;;;;41.93;22.57;;;;;;;1.40;88.29;100991.59;5066177;28;20208;-68
2022/12/20 01:46:29;;;;;;;43.60;21.63;;;;;;;1.32;88.36;100983.31;5064716;28;20611;-67
2022/12/20 01:49:05;;;;;;;43.37;22.43;;;;;;;1.17;88.47;100983.25;5061085;28;20201;-68
2022/12/20 01:51:35;;;;;;;44.70;22.73;;;;;;;1.06;88.91;100981.72;5062138;28;20548;-67
2022/12/20 01:54:25;;;;;;;47.23;22.87;;;;;;;0.92;89.61;100972.19;5067599;28;20279;-68
2022/12/20 01:56:57;;;;;;;50.90;24.30;;;;;;;0.83;89.71;100974.22;5063785;28;20253;-68
2022/12/20 01:59:26;;;;;;;43.77;22.40;;;;;;;0.72;89.98;100959.63;5063646;28;20213;-68
2022/12/20 02:01:53;;;;;;;43.93;22.17;;;;;;;0.65;90.49;100949.63;5061030;28;20205;-68
2022/12/20 02:04:19;;;;;;;43.93;22.73;;;;;;;0.62;91.08;100948.63;5067517;28;20197;-68
2022/12/20 02:06:46;;;;;;;48.03;23.20;;;;;;;0.74;91.35;100958.00;5059691;28;20217;-67
2022/12/20 02:09:12;;;;;;;47.43;23.63;;;;;;;0.93;90.27;100955.72;5061975;28;20225;-67
2022/12/20 02:12:06;;;;;;;46.43;22.50;;;;;;;0.88;90.49;100944.13;5059744;28;20303;-68
2022/12/20 02:14:50;;;;;;;43.87;23.03;;;;;;;0.89;90.34;100940.72;5065178;28;20537;-68
2022/12/20 02:17:41;;;;;;;43.63;21.87;;;;;;;0.86;90.93;100925.78;5066927;28;20422;-68
2022/12/20 02:20:33;;;;;;;43.37;21.73;;;;;;;0.90;90.88;100929.47;5065081;28;20677;-68
2022/12/20 02:23:38;;;;;;;43.40;22.03;;;;;;;0.90;91.03;100906.00;5066763;28;20190;-68
2022/12/20 02:26:07;;;;;;;40.07;22.17;;;;;;;0.96;91.15;100910.69;5067557;28;20459;-68
2022/12/20 02:28:53;;;;;;;45.13;22.70;;;;;;;1.01;90.42;100904.94;5062425;28;20202;-68
2022/12/20 02:31:26;;;;;;;45.20;22.57;;;;;;;0.98;90.35;100909.97;5065384;28;20193;-67
2022/12/20 02:33:56;;;;;;;44.80;22.10;;;;;;;1.11;89.22;100909.88;5061627;28;20198;-68
2022/12/20 02:36:24;;;;;;;49.87;23.37;;;;;;;1.01;89.51;100914.47;5066964;28;20225;-68
2022/12/20 02:38:51;;;;;;;46.63;23.57;;;;;;;0.94;89.67;100916.72;5069052;28;20194;-68
2022/12/20 02:41:23;;;;;;;47.13;23.57;;;;;;;1.05;89.33;100906.00;5062678;28;20195;-68
2022/12/20 02:46:41;;;;;;;43.30;22.30;;;;;;;0.93;90.24;100899.25;5063012;28;20234;-68
2022/12/20 02:49:14;;;;;;;43.83;22.53;;;;;;;0.90;90.15;100891.25;5063094;28;20644;-68
2022/12/20 02:51:43;;;;;;;44.80;24.20;;;;;;;1.07;90.63;100896.56;5066897;28;20198;-68
2022/12/20 02:54:10;;;;;;;46.57;22.87;;;;;;;1.23;89.53;100897.56;5061303;28;20664;-68
2022/12/20 02:56:50;;;;;;;49.63;24.20;;;;;;;1.31;89.24;100892.81;5062438;28;20232;-68
2022/12/20 02:59:40;;;;;;;49.93;24.73;;;;;;;1.16;89.07;100904.91;5061011;28;20198;-68
2022/12/20 03:02:07;;;;;;;52.13;24.90;;;;;;;1.20;89.14;100914.72;5057583;28;20631;-68
2022/12/20 03:04:38;;;;;;;49.40;24.97;;;;;;;1.08;89.35;100901.88;5062432;28;20488;-68
2022/12/20 03:07:10;;;;;;;47.27;23.87;;;;;;;1.07;89.42;100913.09;5065830;28;20241;-67
2022/12/20 03:09:39;;;;;;;46.57;23.07;;;;;;;1.06;89.92;100910.41;5070292;28;20229;-68
2022/12/20 03:12:06;;;;;;;55.00;25.70;;;;;;;1.00;90.16;100905.75;5068536;28;20211;-68
2022/12/20 03:14:33;;;;;;;46.90;24.90;;;;;;;1.07;90.26;100905.28;5069599;28;20224;-68
2022/12/20 03:16:59;;;;;;;44.60;22.77;;;;;;;1.11;90.53;100896.84;5065603;28;20264;-68
2022/12/20 03:19:26;;;;;;;47.97;23.70;;;;;;;1.21;90.38;100893.97;5068504;28;20289;-68
2022/12/20 03:21:52;;;;;;;42.43;23.23;;;;;;;1.19;90.21;100879.91;5066667;28;20746;-68
2022/12/20 03:24:18;;;;;;;43.23;23.37;;;;;;;1.46;89.00;100898.88;5065815;28;20241;-68
2022/12/20 03:26:45;;;;;;;47.07;24.70;;;;;;;1.47;88.36;100878.91;5057116;28;20701;-68
2022/12/20 03:29:11;;;;;;;48.30;23.07;;;;;;;1.49;88.27;100882.50;5062752;28;20249;-68
2022/12/20 03:31:38;;;;;;;44.53;22.73;;;;;;;1.40;88.65;100874.16;5069628;28;20194;-69
2022/12/20 03:34:04;;;;;;;39.77;21.13;;;;;;;1.32;89.01;100862.38;5061955;28;20198;-68
2022/12/20 03:36:31;;;;;;;39.80;21.17;;;;;;;1.34;89.24;100871.19;5062355;28;20217;-68
2022/12/20 03:38:57;;;;;;;43.20;21.40;;;;;;;1.37;89.58;100876.59;5060742;28;20311;-68
2022/12/20 03:41:25;;;;;;;43.80;21.07;;;;;;;1.41;89.88;100863.81;5065186;28;20226;-68
2022/12/20 03:43:52;;;;;;;44.33;21.50;;;;;;;1.45;89.91;100865.78;5054907;28;20252;-68
2022/12/20 03:46:18;;;;;;;42.20;20.83;;;;;;;1.52;89.22;100870.53;5063971;28;20271;-68
2022/12/20 03:48:44;;;;;;;41.37;21.63;;;;;;;1.65;88.33;100879.09;5058596;28;20249;-68
2022/12/20 03:51:11;;;;;;;41.87;20.77;;;;;;;1.55;88.40;100891.59;5070350;28;20207;-68
2022/12/20 03:53:37;;;;;;;42.93;22.20;;;;;;;1.34;88.77;100864.28;5056698;28;20199;-68
2022/12/20 03:56:04;;;;;;;37.50;19.83;;;;;;;1.41;89.30;100889.91;5057083;28;20247;-68
2022/12/20 03:58:30;;;;;;;36.30;18.47;;;;;;;1.35;89.37;100871.28;5060439;28;20202;-68
2022/12/20 04:00:57;;;;;;;36.13;20.13;;;;;;;1.39;89.92;100875.88;5054493;28;20198;-68
2022/12/20 04:03:23;;;;;;;41.63;19.67;;;;;;;1.48;89.67;100868.56;5060342;28;20689;-68
2022/12/20 04:05:50;;;;;;;41.53;20.17;;;;;;;1.51;89.80;100871.34;5065997;28;20231;-68
2022/12/20 04:08:16;;;;;;;37.50;20.00;;;;;;;1.46;89.66;100872.78;5060025;28;20229;-68
2022/12/20 04:13:27;;;;;;;38.93;20.10;;;;;;;1.48;89.97;100858.13;5058286;28;20227;-67
2022/12/20 04:15:54;;;;;;;41.83;20.57;;;;;;;1.44;89.98;100870.91;5064985;28;20779;-68
2022/12/20 04:18:26;;;;;;;36.43;19.57;;;;;;;1.58;89.59;100869.97;5055741;28;20618;-68
2022/12/20 04:20:52;;;;;;;40.57;20.97;;;;;;;1.52;89.21;100853.97;5060215;28;20767;-68
2022/12/20 04:23:19;;;;;;;39.63;20.43;;;;;;;1.43;89.60;100841.31;5057658;28;20205;-68
2022/12/20 04:25:45;;;;;;;40.57;20.30;;;;;;;1.48;89.82;100842.47;5061144;28;20221;-68
2022/12/20 04:28:11;;;;;;;39.57;19.70;;;;;;;1.43;89.97;100830.88;5057203;28;20190;-68
2022/12/20 04:30:38;;;;;;;36.43;20.70;;;;;;;1.52;90.28;100825.25;5058040;28;20210;-67
2022/12/20 04:33:04;;;;;;;37.63;21.27;;;;;;;1.54;90.52;100834.06;5060244;28;20260;-68
2022/12/20 04:35:31;;;;;;;34.27;19.87;;;;;;;1.43;90.52;100807.38;5053651;28;20211;-67
2022/12/20 04:37:58;;;;;;;35.83;19.77;;;;;;;1.46;90.07;100827.53;5059362;28;20619;-68
2022/12/20 04:40:24;;;;;;;41.90;20.30;;;;;;;1.43;90.25;100822.16;5063415;28;20202;-68
2022/12/20 04:42:50;;;;;;;35.83;19.83;;;;;;;1.56;89.08;100835.06;5062378;28;20205;-68
2022/12/20 04:45:17;;;;;;;40.37;21.67;;;;;;;1.51;88.32;100820.84;5056560;28;20203;-68
2022/12/20 04:47:43;;;;;;;39.70;20.70;;;;;;;1.53;88.05;100824.44;5055816;28;20234;-68
2022/12/20 04:50:09;;;;;;;44.23;22.40;;;;;;;1.45;88.29;100836.19;5063348;28;20204;-67
2022/12/20 04:55:21;;;;;;;36.43;19.80;;;;;;;1.23;89.26;100836.69;5060594;28;20194;-68
2022/12/20 04:57:47;;;;;;;42.53;21.50;;;;;;;1.22;89.60;100848.81;5055073;28;20211;-68
2022/12/20 05:00:14;;;;;;;40.07;21.10;;;;;;;1.23;89.94;100847.13;5059021;28;20286;-68
2022/12/20 05:02:41;;;;;;;46.20;23.57;;;;;;;1.20;90.23;100836.47;5054564;28;20635;-68
2022/12/20 05:05:07;;;;;;;47.07;25.07;;;;;;;1.23;90.67;100842.78;5058418;28;20202;-68
2022/12/20 05:07:34;;;;;;;50.10;24.50;;;;;;;1.23;90.87;100837.56;5068523;28;20253;-68
2022/12/20 05:10:00;;;;;;;48.93;24.30;;;;;;;1.21;90.89;100820.94;5068441;28;20654;-68
2022/12/20 05:12:26;;;;;;;46.30;24.00;;;;;;;1.35;90.62;100828.66;5065984;28;20252;-68
2022/12/20 05:14:52;;;;;;;50.23;25.40;;;;;;;1.31;90.73;100821.47;5067243;28;20203;-68
2022/12/20 05:17:19;;;;;;;50.87;25.30;;;;;;;1.29;90.83;100826.59;5067863;22;20249;-68
2022/12/20 05:19:45;;;;;;;49.33;24.83;;;;;;;1.44;90.40;100834.38;5067912;28;20202;-67
2022/12/20 05:27:41;;;;;;;51.47;25.00;;;;;;;1.52;88.63;100839.22;5066910;28;20222;-72
2022/12/20 05:30:08;;;;;;;47.17;24.27;;;;;;;1.39;88.51;100821.06;5051566;28;20202;-72
2022/12/20 05:32:34;;;;;;;46.57;23.27;;;;;;;1.32;89.04;100815.44;5060699;28;20248;-68
2022/12/20 05:35:01;;;;;;;45.67;24.30;;;;;;;1.26;89.71;100815.97;5046430;28;20198;-68
2022/12/20 05:37:27;;;;;;;47.47;24.83;;;;;;;1.24;89.97;100821.13;5065576;28;20222;-68
2022/12/20 05:39:54;;;;;;;48.30;23.53;;;;;;;1.14;90.53;100795.28;5067077;28;20197;-71
2022/12/20 05:42:20;;;;;;;51.47;25.53;;;;;;;1.23;90.75;100811.50;5063655;28;20227;-71
2022/12/20 05:44:46;;;;;;;45.97;24.97;;;;;;;1.24;91.32;100807.16;5068487;28;20198;-73
2022/12/20 05:47:13;;;;;;;50.20;25.40;;;;;;;1.36;91.33;100813.06;5061159;28;20223;-68
2022/12/20 05:49:39;;;;;;;46.97;23.90;;;;;;;1.37;91.31;100808.75;5067920;28;20253;-68
2022/12/20 05:52:06;;;;;;;49.23;25.33;;;;;;;1.43;91.10;100806.50;5064518;28;20676;-68
2022/12/20 05:54:32;;;;;;;45.50;23.63;;;;;;;1.43;91.13;100801.28;5066659;28;20196;-71
2022/12/20 05:56:59;;;;;;;46.17;23.63;;;;;;;1.35;91.27;100779.06;5066534;28;20257;-70
2022/12/20 05:59:25;;;;;;;42.37;21.90;;;;;;;1.48;91.31;100802.41;5064891;28;20217;-72
2022/12/20 06:01:51;;;;;;;39.53;20.93;;;;;;;1.56;91.30;100795.91;5062750;28;20209;-69
2022/12/20 06:04:18;;;;;;;44.40;23.53;;;;;;;1.75;90.03;100795.22;5061031;28;20195;-68
2022/12/20 06:06:44;;;;;;;39.67;21.47;;;;;;;1.67;90.11;100792.22;5069177;28;20229;-68
2022/12/20 06:09:11;;;;;;;37.27;21.17;;;;;;;1.68;90.05;100796.63;5064229;28;20700;-68
2022/12/20 06:11:37;;;;;;;44.47;23.47;;;;;;;1.74;89.34;100796.94;5068928;28;20201;-68
2022/12/20 06:14:03;;;;;;;46.70;23.07;;;;;;;1.63;89.12;100805.91;5066559;28;20204;-67
2022/12/20 06:16:30;;;;;;;43.17;23.03;;;;;;;1.57;89.29;100801.22;5064285;28;20795;-70
2022/12/20 06:18:56;;;;;;;48.20;24.33;;;;;;;1.63;89.15;100795.47;5059803;28;20197;-68
2022/12/20 06:21:23;;;;;;;40.13;22.13;;;;;;;1.62;89.09;100790.16;5065017;28;20202;-68
2022/12/20 06:23:49;;;;;;;42.13;22.30;;;;;;;1.22;89.07;100739.25;5062748;28;20197;-67
2022/12/20 06:26:15;;;;;;;47.10;23.10;;;;;;;1.60;89.26;100796.97;5063382;28;20246;-66
2022/12/20 06:28:42;;;;;;;45.40;23.70;;;;;;;1.55;88.78;100792.41;5063190;28;20198;-69
2022/12/20 06:31:10;;;;;;;39.97;21.83;;;;;;;1.49;89.08;100801.59;5064365;28;20249;-67
2022/12/20 06:33:36;;;;;;;44.37;23.53;;;;;;;1.45;89.35;100810.09;5064894;28;20259;-68
2022/12/20 06:36:03;;;;;;;42.93;23.03;;;;;;;1.35;89.65;100800.84;5063190;28;20209;-67
2022/12/20 06:38:29;;;;;;;42.20;22.30;;;;;;;1.36;89.95;100799.13;5045168;28;20239;-67
2022/12/20 06:40:56;;;;;;;45.33;22.90;;;;;;;1.20;90.32;100772.19;5063745;28;20247;-68
2022/12/20 06:43:22;;;;;;;50.83;25.23;;;;;;;1.37;90.45;100801.81;5067253;28;20280;-68
2022/12/20 06:45:48;;;;;;;39.60;22.43;;;;;;;1.40;90.67;100799.38;5065591;28;20203;-70
2022/12/20 06:48:15;;;;;;;45.17;24.70;;;;;;;1.48;90.44;100805.94;5065112;28;20300;-68
2022/12/20 06:50:41;;;;;;;48.00;25.67;;;;;;;1.64;89.51;100810.31;5063937;28;20491;-68
2022/12/20 06:53:08;;;;;;;49.93;24.60;;;;;;;1.61;89.19;100794.47;5066518;28;20199;-71
2022/12/20 06:55:34;;;;;;;46.70;24.47;;;;;;;1.60;89.39;100802.19;5062970;28;20199;-69
2022/12/20 06:58:02;;;;;;;51.97;26.30;;;;;;;1.61;89.84;100804.03;5065524;28;20861;-69
2022/12/20 07:00:28;;;;;;;48.37;25.80;;;;;;;1.63;89.99;100805.00;5071872;28;20256;-68
2022/12/20 07:02:55;;;;;;;47.57;25.63;;;;;;;1.64;89.88;100798.97;5069761;28;20286;-68
2022/12/20 07:05:22;;;;;;;50.00;26.57;;;;;;;1.68;90.33;100798.31;5069157;28;20728;-65
2022/12/20 07:07:48;;;;;;;49.60;25.80;;;;;;;1.82;89.86;100797.34;5070524;28;20765;-65
2022/12/20 07:10:15;;;;;;;49.07;27.03;;;;;;;2.00;88.55;100798.38;5071407;28;20209;-66
2022/12/20 07:12:41;;;;;;;47.47;25.87;;;;;;;2.10;87.62;100789.31;5066816;28;20479;-66
2022/12/20 07:15:14;;;;;;;51.13;26.10;;;;;;;2.10;87.51;100789.31;5056820;28;20314;-69
2022/12/20 07:17:40;;;;;;;53.10;26.63;;;;;;;2.11;87.69;100785.88;5040714;28;20639;-66
2022/12/20 07:20:07;;;;;;;48.80;25.70;;;;;;;1.96;87.73;100783.31;5065711;28;20270;-69
2022/12/20 07:22:39;;;;;;;50.87;25.07;;;;;;;1.87;88.16;100785.44;5064964;28;20194;-69
2022/12/20 07:25:06;;;;;;;52.53;25.43;;;;;;;1.88;88.79;100787.25;5067865;28;20199;-66
2022/12/20 07:27:32;;;;;;;51.77;26.23;;;;;;;1.86;89.04;100792.38;5044490;28;20233;-69
2022/12/20 07:29:59;;;;;;;50.50;26.70;;;;;;;1.86;89.34;100799.31;5075387;28;20247;-68
2022/12/20 07:32:25;;;;;;;46.77;24.93;;;;;;;1.86;89.73;100797.59;5071766;28;20212;-68
2022/12/20 07:34:52;;;;;;;47.37;24.13;;;;;;;1.81;90.12;100783.41;5065763;28;20581;-66
2022/12/20 07:37:18;;;;;;;46.90;24.17;;;;;;;1.78;90.09;100779.72;5070240;28;20210;-70
2022/12/20 07:39:45;;;;;;;49.10;25.93;;;;;;;1.76;90.62;100776.13;5069502;28;20221;-71
2022/12/20 07:42:11;;;;;;;51.73;26.03;;;;;;;1.81;90.57;100778.19;5069354;28;20202;-69
2022/12/20 07:44:37;;;;;;;47.90;25.47;;;;;;;1.79;90.16;100774.59;5067118;28;20543;-67
2022/12/20 07:47:04;;;;;;;53.50;27.80;;;;;;;1.75;90.15;100780.47;5068713;28;20226;-67
2022/12/20 07:49:30;;;;;;;54.70;26.10;;;;;;;1.70;90.04;100771.50;5073883;28;20722;-66
2022/12/20 07:51:58;;;;;;;49.33;25.57;;;;;;;1.77;90.28;100771.00;5069931;28;20496;-66
2022/12/20 07:54:28;;;;;;;48.47;26.10;;;;;;;1.79;90.28;100765.84;5072964;28;20230;-67
2022/12/20 07:56:59;;;;;;;52.87;27.77;;;;;;;1.95;89.53;100755.41;5065413;28;20721;-69
2022/12/20 07:59:32;;;;;;;51.77;26.93;;;;;;;2.02;88.94;100757.56;5072874;28;20195;-70
2022/12/20 08:02:00;;;;;;;53.70;27.23;;;;;;;2.06;88.46;100761.22;5064273;28;20200;-67
2022/12/20 08:04:32;;;;;;;54.00;27.73;;;;;;;2.23;87.81;100752.56;5074430;28;20204;-67
2022/12/20 08:07:00;;;;;;;52.23;27.53;;;;;;;2.18;86.90;100738.34;5052078;28;20706;-65
2022/12/20 08:09:30;;;;;;;50.93;26.87;;;;;;;2.20;87.67;100755.91;5077106;28;20613;-67
2022/12/20 08:11:57;;;;;;;47.83;26.23;;;;;;;2.20;88.17;100749.78;5070211;28;20202;-69
2022/12/20 08:14:23;;;;;;;55.17;27.27;;;;;;;2.23;88.35;100760.38;5082776;28;20228;-68
2022/12/20 08:16:49;;;;;;;51.47;26.67;;;;;;;2.25;88.67;100748.31;5073233;28;20249;-69
2022/12/20 08:19:16;;;;;;;53.83;27.13;;;;;;;2.40;88.25;100748.19;5071641;28;20189;-68
2022/12/20 08:21:42;;;;;;;49.83;27.07;;;;;;;2.48;88.26;100744.28;5068152;28;20206;-67
2022/12/20 08:24:08;;;;;;;47.93;26.40;;;;;;;2.68;86.38;100748.78;5069884;28;20209;-66
2022/12/20 08:26:39;;;;;;;49.63;26.37;;;;;;;2.67;86.05;100733.03;5068250;28;20247;-65
2022/12/20 08:29:07;;;;;;;50.43;26.03;;;;;;;2.61;86.19;100736.22;5058524;28;20229;-66
2022/12/20 08:31:43;;;;;;;53.33;27.00;;;;;;;2.71;85.79;100729.72;5065316;28;20203;-67
2022/12/20 08:34:15;;;;;;;58.37;27.27;;;;;;;2.66;85.95;100736.47;5075409;28;20198;-66
2022/12/20 08:36:42;;;;;;;56.47;26.80;;;;;;;2.70;85.57;100744.53;5063768;28;20314;-69
2022/12/20 08:39:10;;;;;;;52.87;26.63;;;;;;;2.68;85.52;100735.72;5066206;28;20257;-67
2022/12/20 08:41:36;;;;;;;53.77;26.37;;;;;;;2.59;86.16;100732.63;5063402;28;20195;-70
2022/12/20 08:44:04;;;;;;;55.33;25.60;;;;;;;2.51;86.37;100731.38;5068505;28;20225;-67
2022/12/20 08:46:30;;;;;;;56.33;27.10;;;;;;;2.41;86.46;100745.69;5060647;28;20218;-69
2022/12/20 08:48:57;;;;;;;55.73;26.17;;;;;;;2.41;87.48;100732.63;5068425;28;20222;-68
2022/12/20 08:51:23;;;;;;;51.33;26.70;;;;;;;2.44;88.00;100737.09;5068521;28;20202;-68
2022/12/20 08:53:51;;;;;;;53.50;26.53;;;;;;;2.44;87.82;100738.00;5068026;28;20201;-67
2022/12/20 08:56:17;;;;;;;49.20;26.43;;;;;;;2.65;86.25;100746.00;5066881;28;20219;-67
2022/12/20 08:58:45;;;;;;;50.90;25.87;;;;;;;2.61;86.67;100740.56;5066919;28;20190;-68
2022/12/20 09:01:15;;;;;;;56.30;26.03;;;;;;;2.62;87.14;100734.50;5065129;28;20201;-66
2022/12/20 09:03:43;;;;;;;48.13;24.60;;;;;;;2.66;87.77;100718.16;5067951;28;20195;-68
2022/12/20 09:06:15;;;;;;;52.83;26.13;;;;;;;2.75;87.94;100718.59;5061773;28;20221;-68
2022/12/20 09:08:42;;;;;;;46.37;26.10;;;;;;;2.80;87.98;100724.97;5067281;28;20254;-68
2022/12/20 09:11:14;;;;;;;55.10;26.23;;;;;;;2.88;88.21;100727.97;5054436;28;20202;-66
2022/12/20 09:13:42;;;;;;;45.87;25.80;;;;;;;2.93;88.06;100735.22;5055189;28;20297;-67
2022/12/20 09:16:11;;;;;;;44.53;25.87;;;;;;;2.95;87.80;100732.69;5051054;28;20531;-68
2022/12/20 09:18:38;;;;;;;46.87;24.90;;;;;;;2.98;87.61;100730.22;5053055;28;20203;-71
2022/12/20 09:21:07;;;;;;;51.53;26.43;;;;;;;3.02;86.87;100725.19;5053736;28;20209;-67
2022/12/20 09:23:35;;;;;;;44.67;24.50;;;;;;;3.02;87.17;100724.31;5053378;28;20228;-68
2022/12/20 09:26:15;;;;;;;50.53;25.93;;;;;;;3.10;86.50;100720.34;5039857;28;20204;-67
2022/12/20 09:28:43;;;;;;;46.13;25.90;;;;;;;3.15;86.48;100719.72;5058441;28;20280;-70
2022/12/20 09:31:12;;;;;;;46.40;25.73;;;;;;;3.20;86.63;100719.94;5052452;28;20221;-70
2022/12/20 09:33:38;;;;;;;46.77;24.00;;;;;;;3.21;86.57;100727.00;5051387;28;20572;-68
2022/12/20 09:36:06;;;;;;;46.83;25.10;;;;;;;3.21;86.39;100723.50;5057471;28;20199;-69
2022/12/20 09:38:32;;;;;;;42.00;23.60;;;;;;;3.23;86.83;100711.38;5053084;28;20199;-68
2022/12/20 09:41:03;;;;;;;45.37;25.17;;;;;;;3.30;87.33;100709.13;5050181;28;20292;-67
2022/12/20 09:43:32;;;;;;;41.10;23.63;;;;;;;3.39;86.98;100713.88;5050118;28;20198;-70
2022/12/20 09:46:00;;;;;;;40.93;23.63;;;;;;;3.46;86.97;100700.25;5053790;28;20884;-70
2022/12/20 09:48:37;;;;;;;43.67;24.73;;;;;;;3.52;86.98;100703.16;5057251;28;20216;-67
2022/12/20 09:51:16;;;;;;;45.70;26.67;;;;;;;3.57;86.92;100701.63;5068306;28;20201;-66
2022/12/20 09:54:07;;;;;;;51.83;25.97;;;;;;;3.66;86.64;100695.94;5061471;28;20283;-68
2022/12/20 09:56:43;;;;;;;46.33;25.13;;;;;;;3.75;85.88;100691.13;5071087;28;20222;-69
2022/12/20 09:59:12;;;;;;;47.53;26.93;;;;;;;3.80;85.59;100692.22;5069943;28;20254;-69
2022/12/20 10:01:43;;;;;;;44.47;24.07;;;;;;;3.80;85.01;100689.59;5068392;28;20206;-70
2022/12/20 10:04:22;;;;;;;47.50;24.80;;;;;;;3.92;85.17;100691.88;5068959;28;20698;-67
2022/12/20 10:07:13;;;;;;;41.23;23.27;;;;;;;3.99;85.57;100683.44;5077044;28;20257;-69
2022/12/20 10:10:15;;;;;;;42.90;23.30;;;;;;;4.06;84.80;100686.44;5068653;28;20247;-68
2022/12/20 10:13:03;;;;;;;36.77;23.03;;;;;;;4.15;84.87;100696.41;5060315;28;20566;-67
2022/12/20 10:15:40;;;;;;;41.03;23.17;;;;;;;4.10;84.54;100690.06;5056573;28;20273;-66
2022/12/20 10:18:24;;;;;;;45.07;24.13;;;;;;;4.10;83.56;100684.84;5066079;28;20317;-66
2022/12/20 10:21:15;;;;;;;41.63;22.23;;;;;;;4.12;83.91;100680.56;5065418;28;20223;-67
2022/12/20 10:23:41;;;;;;;47.93;23.70;;;;;;;4.11;83.89;100685.72;5080342;28;20225;-67
2022/12/20 10:26:09;;;;;;;49.10;23.93;;;;;;;4.12;84.07;100677.94;5067852;28;20251;-70
2022/12/20 10:28:39;;;;;;;42.40;24.33;;;;;;;4.12;84.34;100675.31;5065754;28;20295;-67
2022/12/20 10:31:12;;;;;;;46.53;25.63;;;;;;;4.13;84.67;100679.72;5068777;28;20197;-70
2022/12/20 10:33:39;;;;;;;44.07;24.67;;;;;;;4.19;85.11;100664.25;5067861;28;20202;-68
2022/12/20 10:36:22;;;;;;;44.10;23.70;;;;;;;4.23;84.46;100671.44;5067199;28;20708;-68
2022/12/20 10:38:51;;;;;;;48.80;27.30;;;;;;;4.34;83.90;100674.50;5071092;28;20229;-70
2022/12/20 10:41:22;;;;;;;49.13;26.50;;;;;;;4.35;83.52;100668.44;5073597;28;20250;-66
2022/12/20 10:44:00;;;;;;;53.60;27.83;;;;;;;4.45;82.96;100665.38;5070547;28;20198;-69
2022/12/20 10:46:56;;;;;;;47.53;26.67;;;;;;;4.77;81.56;100658.81;5068539;28;20252;-69
2022/12/20 10:49:35;;;;;;;42.53;25.80;;;;;;;4.82;81.57;100665.19;5053592;28;20229;-67
2022/12/20 10:52:08;;;;;;;45.23;25.30;;;;;;;4.78;80.83;100654.47;5075833;28;20202;-67
2022/12/20 10:54:37;;;;;;;44.47;25.67;;;;;;;4.92;81.04;100654.22;5080980;28;20667;-69
2022/12/20 10:57:28;;;;;;;45.23;26.67;;;;;;;5.02;80.96;100656.38;5066809;28;20234;-67
2022/12/20 11:00:01;;;;;;;43.77;23.97;;;;;;;5.07;80.71;100651.28;5071401;28;20273;-67
2022/12/20 11:02:32;;;;;;;45.63;25.13;;;;;;;5.10;80.63;100650.50;5068220;28;20217;-68
2022/12/20 11:05:10;;;;;;;43.03;24.53;;;;;;;5.12;80.24;100657.63;5063399;28;20569;-68
2022/12/20 11:07:50;;;;;;;49.57;26.47;;;;;;;5.02;80.66;100643.25;5058287;28;20233;-74
2022/12/20 11:10:36;;;;;;;46.07;25.27;;;;;;;4.92;81.52;100642.81;5057036;28;20545;-71
2022/12/20 11:13:03;;;;;;;43.90;25.63;;;;;;;4.96;81.48;100647.34;5073871;28;20301;-71
2022/12/20 11:15:34;;;;;;;50.37;26.20;;;;;;;4.88;81.11;100638.28;5072410;28;20204;-68
2022/12/20 11:18:12;;;;;;;46.17;25.07;;;;;;;5.07;81.18;100629.41;5090638;22;20238;-67
2022/12/20 11:20:57;;;;;;;49.90;26.73;;;;;;;4.92;80.92;100641.09;5067004;28;20625;-68
2022/12/20 11:23:48;;;;;;;48.73;27.17;;;;;;;4.94;81.71;100635.91;5061657;28;20210;-66
2022/12/20 11:26:53;;;;;;;47.20;26.47;;;;;;;5.08;81.25;100626.84;5063910;28;20628;-65
2022/12/20 11:29:50;;;;;;;49.17;26.27;;;;;;;5.29;80.60;100605.78;5050259;28;20257;-67
2022/12/20 11:32:37;;;;;;;46.73;25.37;;;;;;;5.23;80.97;100600.31;5048931;28;20205;-65
2022/12/20 11:35:19;;;;;;;48.67;27.27;;;;;;;5.03;80.75;100594.28;5046029;28;20203;-65
2022/12/20 11:38:03;;;;;;;49.53;26.70;;;;;;;5.07;81.57;100582.16;5043626;28;20215;-67
2022/12/20 11:40:46;;;;;;;48.03;26.27;;;;;;;4.92;81.79;100578.13;5048170;28;20199;-65
2022/12/20 11:43:34;;;;;;;49.23;27.43;;;;;;;4.90;82.74;100571.03;5049982;28;20206;-65